createdAt,value
2018-11-03T00:00:04.524Z,79.03
2018-11-03T00:01:04.855Z,78.97
2018-11-03T00:02:04.474Z,79.03
2018-11-03T00:03:04.538Z,79.08
2018-11-03T00:04:04.497Z,79.07
2018-11-03T00:05:04.509Z,78.8
2018-11-03T00:06:04.503Z,79.28
2018-11-03T00:07:04.494Z,79.44
2018-11-03T00:08:04.482Z,79.38
2018-11-03T00:09:04.477Z,79.65
2018-11-03T00:10:04.504Z,79.54
2018-11-03T00:11:04.479Z,79.54
2018-11-03T00:12:04.475Z,79.53
2018-11-03T00:13:04.513Z,79.46
2018-11-03T00:14:04.496Z,79.07
2018-11-03T00:15:04.562Z,79.19
2018-11-03T00:16:04.692Z,79.4
2018-11-03T00:17:04.533Z,79.12
2018-11-03T00:18:04.674Z,79.38
2018-11-03T00:19:04.496Z,79.16
2018-11-03T00:20:04.607Z,79.2
2018-11-03T00:21:04.677Z,78.88
2018-11-03T00:22:04.506Z,79.35
2018-11-03T00:23:04.489Z,79.02
2018-11-03T00:24:04.874Z,79.14
2018-11-03T00:25:04.481Z,79.09
2018-11-03T00:26:04.515Z,79.5
2018-11-03T00:27:04.517Z,79.17
2018-11-03T00:28:04.467Z,79.39
2018-11-03T00:29:04.536Z,78.88
2018-11-03T00:30:04.725Z,79.06
2018-11-03T00:31:04.852Z,78.79
2018-11-03T00:32:04.537Z,78.54
2018-11-03T00:33:04.851Z,78.84
2018-11-03T00:34:04.529Z,78.92
2018-11-03T00:35:04.485Z,78.84
2018-11-03T00:36:04.794Z,79.23
2018-11-03T00:37:04.522Z,79.05
2018-11-03T00:38:04.507Z,79.5
2018-11-03T00:39:04.484Z,79.68
2018-11-03T00:40:05.035Z,79.09
2018-11-03T00:41:04.487Z,79.21
2018-11-03T00:42:04.486Z,79.37
2018-11-03T00:43:04.562Z,79.23
2018-11-03T00:44:04.586Z,78.93
2018-11-03T00:45:04.700Z,78.98
2018-11-03T00:46:04.526Z,78.37
2018-11-03T00:47:04.471Z,78.48
2018-11-03T00:48:05.308Z,79.04
2018-11-03T00:49:04.496Z,78.65
2018-11-03T00:50:04.532Z,78.8
2018-11-03T00:51:04.530Z,78.91
2018-11-03T00:52:04.579Z,78.96
2018-11-03T00:53:04.551Z,78.88
2018-11-03T00:54:05.274Z,78.47
2018-11-03T00:55:04.431Z,78.32
2018-11-03T00:56:04.743Z,78.62
2018-11-03T00:57:04.474Z,78.27
2018-11-03T00:58:04.477Z,78.51
2018-11-03T00:59:04.439Z,78.31
2018-11-03T01:00:04.419Z,78.31
2018-11-03T01:01:04.428Z,78.37
2018-11-03T01:02:04.517Z,78.02
2018-11-03T01:03:04.700Z,78.04
2018-11-03T01:04:04.447Z,77.91
2018-11-03T01:05:04.582Z,78.22
2018-11-03T01:06:04.883Z,78.24
2018-11-03T01:07:04.523Z,78.14
2018-11-03T01:08:04.812Z,77.92
2018-11-03T01:09:04.538Z,78.17
2018-11-03T01:10:04.416Z,78.06
2018-11-03T01:11:04.425Z,78.15
2018-11-03T01:12:04.739Z,78.39
2018-11-03T01:13:04.511Z,78.42
2018-11-03T01:14:04.386Z,78.25
2018-11-03T01:15:04.663Z,78.46
2018-11-03T01:16:04.409Z,78.3
2018-11-03T01:17:04.391Z,78.63
2018-11-03T01:18:04.507Z,78.19
2018-11-03T01:19:04.585Z,78.25
2018-11-03T01:20:04.567Z,78.51
2018-11-03T01:21:04.373Z,78.62
2018-11-03T01:22:04.597Z,78.42
2018-11-03T01:23:04.490Z,78.2
2018-11-03T01:24:05.028Z,78.31
2018-11-03T01:25:04.393Z,77.91
2018-11-03T01:26:04.386Z,78.3
2018-11-03T01:27:04.393Z,77.68
2018-11-03T01:28:04.374Z,77.52
2018-11-03T01:29:04.482Z,77.38
2018-11-03T01:30:04.348Z,77.16
2018-11-03T01:31:04.360Z,77.24
2018-11-03T01:32:04.356Z,77.47
2018-11-03T01:33:04.377Z,77.25
2018-11-03T01:34:04.364Z,77.11
2018-11-03T01:35:04.381Z,77.5
2018-11-03T01:36:04.367Z,77.35
2018-11-03T01:37:04.378Z,77.34
2018-11-03T01:38:04.358Z,77.72
2018-11-03T01:39:04.365Z,77.48
2018-11-03T01:40:04.381Z,77.31
2018-11-03T01:41:04.367Z,77.21
2018-11-03T01:42:04.448Z,76.96
2018-11-03T01:43:04.395Z,77.24
2018-11-03T01:44:04.345Z,77.17
2018-11-03T01:45:04.352Z,76.79
2018-11-03T01:46:04.342Z,76.35
2018-11-03T01:47:04.711Z,77.17
2018-11-03T01:48:04.471Z,77.17
2018-11-03T01:49:04.586Z,76.51
2018-11-03T01:50:04.930Z,76.78
2018-11-03T01:51:04.492Z,76.77
2018-11-03T01:52:04.600Z,76.54
2018-11-03T01:53:04.677Z,76.67
2018-11-03T01:54:04.356Z,76.75
2018-11-03T01:55:04.457Z,76.68
2018-11-03T01:56:04.740Z,76.61
2018-11-03T01:57:04.366Z,76.62
2018-11-03T01:58:04.371Z,76.59
2018-11-03T01:59:04.291Z,76.92
2018-11-03T02:00:04.557Z,76.66
2018-11-03T02:01:04.438Z,76.77
2018-11-03T02:02:04.338Z,76.94
2018-11-03T02:03:04.394Z,76.72
2018-11-03T02:04:04.477Z,77.57
2018-11-03T02:05:04.348Z,76.93
2018-11-03T02:06:04.405Z,77.5
2018-11-03T02:07:04.345Z,77.36
2018-11-03T02:08:04.419Z,77.25
2018-11-03T02:09:04.422Z,76.99
2018-11-03T02:10:05.044Z,77.2
2018-11-03T02:11:04.441Z,77.04
2018-11-03T02:12:05.150Z,77.36
2018-11-03T02:13:04.360Z,77.43
2018-11-03T02:14:04.364Z,77.15
2018-11-03T02:15:04.501Z,77.3
2018-11-03T02:16:04.911Z,77.1
2018-11-03T02:17:04.566Z,76.76
2018-11-03T02:18:04.475Z,77.11
2018-11-03T02:19:04.380Z,77.15
2018-11-03T02:20:04.890Z,77.34
2018-11-03T02:21:04.776Z,77.28
2018-11-03T02:22:04.403Z,77.07
2018-11-03T02:23:04.427Z,76.78
2018-11-03T02:24:04.621Z,76.93
2018-11-03T02:25:04.674Z,76.98
2018-11-03T02:26:04.427Z,77.11
2018-11-03T02:27:04.438Z,76.95
2018-11-03T02:28:04.293Z,77.4
2018-11-03T02:29:04.396Z,77.19
2018-11-03T02:30:05.143Z,77.37
2018-11-03T02:31:04.287Z,77.45
2018-11-03T02:32:04.678Z,77.03
2018-11-03T02:33:04.423Z,77.21
2018-11-03T02:34:04.429Z,77.11
2018-11-03T02:35:04.288Z,77.29
2018-11-03T02:36:04.301Z,77.17
2018-11-03T02:37:04.610Z,77.03
2018-11-03T02:38:04.613Z,77.22
2018-11-03T02:39:04.856Z,77.87
2018-11-03T02:40:04.937Z,77.8
2018-11-03T02:41:04.712Z,77.75
2018-11-03T02:42:04.647Z,77.9
2018-11-03T02:43:04.543Z,77.84
2018-11-03T02:44:04.423Z,78.01
2018-11-03T02:45:04.487Z,77.9
2018-11-03T02:46:04.653Z,78.1
2018-11-03T02:47:04.684Z,78.4
2018-11-03T02:48:04.401Z,78.33
2018-11-03T02:49:04.359Z,78.43
2018-11-03T02:50:04.705Z,78.65
2018-11-03T02:51:04.413Z,78.42
2018-11-03T02:52:04.276Z,78.5
2018-11-03T02:53:04.615Z,78.25
2018-11-03T02:54:04.257Z,77.99
2018-11-03T02:55:04.372Z,78.19
2018-11-03T02:56:04.334Z,78.39
2018-11-03T02:57:04.651Z,78.35
2018-11-03T02:58:04.246Z,78.34
2018-11-03T02:59:04.358Z,78.08
2018-11-03T03:00:04.236Z,77.81
2018-11-03T03:01:04.286Z,78.25
2018-11-03T03:02:04.266Z,77.99
2018-11-03T03:03:04.405Z,77.91
2018-11-03T03:04:04.247Z,77.72
2018-11-03T03:05:04.263Z,77.98
2018-11-03T03:06:04.248Z,78
2018-11-03T03:07:04.248Z,78.33
2018-11-03T03:08:04.216Z,77.95
2018-11-03T03:09:04.351Z,78.29
2018-11-03T03:10:04.289Z,78.02
2018-11-03T03:11:04.237Z,78.15
2018-11-03T03:12:04.280Z,78.23
2018-11-03T03:13:04.294Z,78.15
2018-11-03T03:14:04.298Z,78.29
2018-11-03T03:15:04.224Z,78.34
2018-11-03T03:16:04.195Z,78.09
2018-11-03T03:17:04.246Z,78.05
2018-11-03T03:18:04.213Z,78.28
2018-11-03T03:19:04.275Z,78.66
2018-11-03T03:20:04.354Z,78.81
2018-11-03T03:21:04.264Z,78.63
2018-11-03T03:22:04.270Z,78.64
2018-11-03T03:23:04.312Z,78.8
2018-11-03T03:24:04.224Z,78.36
2018-11-03T03:25:04.710Z,78.29
2018-11-03T03:26:04.934Z,78.16
2018-11-03T03:27:04.535Z,78.44
2018-11-03T03:28:04.356Z,78.62
2018-11-03T03:29:04.435Z,78.42
2018-11-03T03:30:04.273Z,78.66
2018-11-03T03:31:04.230Z,78.9
2018-11-03T03:32:04.342Z,78.51
2018-11-03T03:33:04.595Z,78.65
2018-11-03T03:34:04.197Z,78.45
2018-11-03T03:35:04.322Z,78.5
2018-11-03T03:36:04.383Z,78.67
2018-11-03T03:37:04.337Z,78.57
2018-11-03T03:38:04.530Z,78.74
2018-11-03T03:39:04.210Z,78.51
2018-11-03T03:40:04.623Z,78.58
2018-11-03T03:41:04.222Z,78.76
2018-11-03T03:42:04.473Z,78.65
2018-11-03T03:43:04.243Z,78.53
2018-11-03T03:44:04.561Z,78.41
2018-11-03T03:45:04.482Z,78.43
2018-11-03T03:46:05.016Z,78.46
2018-11-03T03:47:04.302Z,78.47
2018-11-03T03:48:04.160Z,78.5
2018-11-03T03:49:04.385Z,78.27
2018-11-03T03:50:04.223Z,78.53
2018-11-03T03:51:04.165Z,78.61
2018-11-03T03:52:05.011Z,78.54
2018-11-03T03:53:04.208Z,78.52
2018-11-03T03:54:04.528Z,78.98
2018-11-03T03:55:04.436Z,78.73
2018-11-03T03:56:04.256Z,78.62
2018-11-03T03:57:04.537Z,78.58
2018-11-03T03:58:04.426Z,78.62
2018-11-03T03:59:04.562Z,78.72
2018-11-03T04:00:04.256Z,78.74
2018-11-03T04:01:04.549Z,78.7
2018-11-03T04:02:04.143Z,78.6
2018-11-03T04:03:04.479Z,78.62
2018-11-03T04:04:04.214Z,78.8
2018-11-03T04:05:04.169Z,78.51
2018-11-03T04:06:04.304Z,78.7
2018-11-03T04:07:04.204Z,78.91
2018-11-03T04:08:04.154Z,78.68
2018-11-03T04:09:04.176Z,78.67
2018-11-03T04:10:04.562Z,78.69
2018-11-03T04:11:04.213Z,78.92
2018-11-03T04:12:04.166Z,78.74
2018-11-03T04:13:04.142Z,78.73
2018-11-03T04:14:04.130Z,78.74
2018-11-03T04:15:04.537Z,78.6
2018-11-03T04:16:04.289Z,78.99
2018-11-03T04:17:04.168Z,78.77
2018-11-03T04:18:04.148Z,78.64
2018-11-03T04:19:04.151Z,78.26
2018-11-03T04:20:04.294Z,78.65
2018-11-03T04:21:04.401Z,78.79
2018-11-03T04:22:04.181Z,78.93
2018-11-03T04:23:04.244Z,78.62
2018-11-03T04:24:04.980Z,78.74
2018-11-03T04:25:04.232Z,78.83
2018-11-03T04:26:04.437Z,78.84
2018-11-03T04:27:04.364Z,78.74
2018-11-03T04:28:04.473Z,78.58
2018-11-03T04:29:04.178Z,79.14
2018-11-03T04:30:04.147Z,79.28
2018-11-03T04:31:04.093Z,79.49
2018-11-03T04:32:04.137Z,79.57
2018-11-03T04:33:04.129Z,79.74
2018-11-03T04:34:04.190Z,79.59
2018-11-03T04:35:04.208Z,80.05
2018-11-03T04:36:04.237Z,80.18
2018-11-03T04:37:04.203Z,80.12
2018-11-03T04:38:04.237Z,80.2
2018-11-03T04:39:04.115Z,80.86
2018-11-03T04:40:04.206Z,80.74
2018-11-03T04:41:04.120Z,80.61
2018-11-03T04:42:04.177Z,80.57
2018-11-03T04:43:04.098Z,80.9
2018-11-03T04:44:04.129Z,80.56
2018-11-03T04:45:04.123Z,80.18
2018-11-03T04:46:04.098Z,80.3
2018-11-03T04:47:04.120Z,81.18
2018-11-03T04:48:04.132Z,81.01
2018-11-03T04:49:04.087Z,81.26
2018-11-03T04:50:04.133Z,80.58
2018-11-03T04:51:04.093Z,80.85
2018-11-03T04:52:04.112Z,80.74
2018-11-03T04:53:04.586Z,80.96
2018-11-03T04:54:04.219Z,80.76
2018-11-03T04:55:04.233Z,80.66
2018-11-03T04:56:04.459Z,81.38
2018-11-03T04:57:04.238Z,81.04
2018-11-03T04:58:04.478Z,81.56
2018-11-03T04:59:04.052Z,81.79
2018-11-03T05:00:04.572Z,81.43
2018-11-03T05:01:04.172Z,81.03
2018-11-03T05:02:04.136Z,80.08
2018-11-03T05:03:04.302Z,80.03
2018-11-03T05:04:04.305Z,79.79
2018-11-03T05:05:04.161Z,79.81
2018-11-03T05:06:04.427Z,79.81
2018-11-03T05:07:04.075Z,79.76
2018-11-03T05:08:04.287Z,80.33
2018-11-03T05:09:04.113Z,80.19
2018-11-03T05:10:04.784Z,80.31
2018-11-03T05:11:04.927Z,79.99
2018-11-03T05:12:04.078Z,79.53
2018-11-03T05:13:04.055Z,79.37
2018-11-03T05:14:04.256Z,79.54
2018-11-03T05:15:04.241Z,79.47
2018-11-03T05:16:04.115Z,79.42
2018-11-03T05:17:04.487Z,79.08
2018-11-03T05:18:04.278Z,78.75
2018-11-03T05:19:04.065Z,79.14
2018-11-03T05:20:04.163Z,78.75
2018-11-03T05:21:04.098Z,79.19
2018-11-03T05:22:04.134Z,79.13
2018-11-03T05:23:04.309Z,79.32
2018-11-03T05:24:04.031Z,79.42
2018-11-03T05:25:04.136Z,79.64
2018-11-03T05:26:04.130Z,79.26
2018-11-03T05:27:04.040Z,79.23
2018-11-03T05:28:04.025Z,79.35
2018-11-03T05:29:04.112Z,79.62
2018-11-03T05:30:04.192Z,79.59
2018-11-03T05:31:04.239Z,79.64
2018-11-03T05:32:04.109Z,79.62
2018-11-03T05:33:04.007Z,79.65
2018-11-03T05:34:04.188Z,79.74
2018-11-03T05:35:04.425Z,79.83
2018-11-03T05:36:04.153Z,79.81
2018-11-03T05:37:04.009Z,79.77
2018-11-03T05:38:04.032Z,79.84
2018-11-03T05:39:04.124Z,79.81
2018-11-03T05:40:04.129Z,79.58
2018-11-03T05:41:04.210Z,80.17
2018-11-03T05:42:04.551Z,80.15
2018-11-03T05:43:04.156Z,79.97
2018-11-03T05:44:04.304Z,80.08
2018-11-03T05:45:04.037Z,80.45
2018-11-03T05:46:04.116Z,80.68
2018-11-03T05:47:04.163Z,80.27
2018-11-03T05:48:04.302Z,80.05
2018-11-03T05:49:04.383Z,80.23
2018-11-03T05:50:04.052Z,80.35
2018-11-03T05:51:04.721Z,80.3
2018-11-03T05:52:04.319Z,80.29
2018-11-03T05:53:04.101Z,80.3
2018-11-03T05:54:04.140Z,80.46
2018-11-03T05:55:04.381Z,80.5
2018-11-03T05:56:04.361Z,80.63
2018-11-03T05:57:04.459Z,80.25
2018-11-03T05:58:04.848Z,80.39
2018-11-03T05:59:04.322Z,80.19
2018-11-03T06:00:04.104Z,80.44
2018-11-03T06:01:04.056Z,80.55
2018-11-03T06:02:04.313Z,80.49
2018-11-03T06:03:04.374Z,80.58
2018-11-03T06:04:04.224Z,80.43
2018-11-03T06:05:04.046Z,80.33
2018-11-03T06:06:04.087Z,80.5
2018-11-03T06:07:03.990Z,80.4
2018-11-03T06:08:04.043Z,80.43
2018-11-03T06:09:04.001Z,80.56
2018-11-03T06:10:04.050Z,80.6
2018-11-03T06:11:03.996Z,80.41
2018-11-03T06:12:03.962Z,80.46
2018-11-03T06:13:04.062Z,80.32
2018-11-03T06:14:04.285Z,80.64
2018-11-03T06:15:04.206Z,80.48
2018-11-03T06:16:03.974Z,80.7
2018-11-03T06:17:03.965Z,80.77
2018-11-03T06:18:04.140Z,80.44
2018-11-03T06:19:03.971Z,80.48
2018-11-03T06:20:04.056Z,80.36
2018-11-03T06:21:03.968Z,80.36
2018-11-03T06:22:03.942Z,80.31
2018-11-03T06:23:04.022Z,80.46
2018-11-03T06:24:03.986Z,80.53
2018-11-03T06:25:04.144Z,80.49
2018-11-03T06:26:04.080Z,80.52
2018-11-03T06:27:04.052Z,80.57
2018-11-03T06:28:04.185Z,80.79
2018-11-03T06:29:04.381Z,80.7
2018-11-03T06:30:04.078Z,81.17
2018-11-03T06:31:04.009Z,81.31
2018-11-03T06:32:04.271Z,81.15
2018-11-03T06:33:04.106Z,81.31
2018-11-03T06:34:04.057Z,81.6
2018-11-03T06:35:04.714Z,81.68
2018-11-03T06:36:03.945Z,81.7
2018-11-03T06:37:04.346Z,81.5
2018-11-03T06:38:04.006Z,81.31
2018-11-03T06:39:04.147Z,81.09
2018-11-03T06:40:04.353Z,81.53
2018-11-03T06:41:04.036Z,81.45
2018-11-03T06:42:03.997Z,81.18
2018-11-03T06:43:03.983Z,81.36
2018-11-03T06:44:04.005Z,81.69
2018-11-03T06:45:04.002Z,81.5
2018-11-03T06:46:04.016Z,81.32
2018-11-03T06:47:04.213Z,81.43
2018-11-03T06:48:04.313Z,81.32
2018-11-03T06:49:03.979Z,80.96
2018-11-03T06:50:04.325Z,80.86
2018-11-03T06:51:03.968Z,80.87
2018-11-03T06:52:04.065Z,80.65
2018-11-03T06:53:04.143Z,80.65
2018-11-03T06:54:04.156Z,80.63
2018-11-03T06:55:04.264Z,80.44
2018-11-03T06:56:03.976Z,80.39
2018-11-03T06:57:04.392Z,80.71
2018-11-03T06:58:04.041Z,80.48
2018-11-03T06:59:03.898Z,80.65
2018-11-03T07:00:04.191Z,80.71
2018-11-03T07:01:04.025Z,80.77
2018-11-03T07:02:04.242Z,80.9
2018-11-03T07:03:03.984Z,80.82
2018-11-03T07:04:04.039Z,80.81
2018-11-03T07:05:03.988Z,80.77
2018-11-03T07:06:04.267Z,80.75
2018-11-03T07:07:03.956Z,80.58
2018-11-03T07:08:03.958Z,80.34
2018-11-03T07:09:04.056Z,80.58
2018-11-03T07:10:04.059Z,80.37
2018-11-03T07:11:03.920Z,80.59
2018-11-03T07:12:04.247Z,81.08
2018-11-03T07:13:04.015Z,81
2018-11-03T07:14:03.928Z,81.29
2018-11-03T07:15:04.480Z,81.68
2018-11-03T07:16:03.934Z,81.33
2018-11-03T07:17:04.438Z,81.65
2018-11-03T07:18:03.882Z,81.3
2018-11-03T07:19:03.891Z,81.17
2018-11-03T07:20:03.876Z,81.06
2018-11-03T07:21:03.911Z,81.2
2018-11-03T07:22:04.143Z,81.91
2018-11-03T07:23:03.897Z,81.77
2018-11-03T07:24:04.234Z,81.95
2018-11-03T07:25:04.190Z,82.03
2018-11-03T07:26:04.203Z,81.85
2018-11-03T07:27:03.973Z,81.92
2018-11-03T07:28:04.088Z,81.89
2018-11-03T07:29:03.989Z,82.14
2018-11-03T07:30:04.096Z,81.92
2018-11-03T07:31:04.134Z,82.02
2018-11-03T07:32:03.976Z,82.03
2018-11-03T07:33:04.010Z,81.97
2018-11-03T07:34:04.125Z,81.98
2018-11-03T07:35:04.236Z,82.32
2018-11-03T07:36:03.902Z,82.36
2018-11-03T07:37:04.141Z,82.5
2018-11-03T07:38:03.922Z,82.74
2018-11-03T07:39:03.915Z,82.49
2018-11-03T07:40:03.961Z,82.45
2018-11-03T07:41:04.124Z,82.34
2018-11-03T07:42:03.917Z,82.16
2018-11-03T07:43:03.948Z,82.3
2018-11-03T07:44:03.910Z,82.64
2018-11-03T07:45:03.946Z,82.5
2018-11-03T07:46:03.944Z,82.74
2018-11-03T07:47:03.949Z,82.65
2018-11-03T07:48:04.032Z,82.33
2018-11-03T07:49:04.302Z,82.32
2018-11-03T07:50:03.875Z,82.56
2018-11-03T07:51:03.938Z,82.17
2018-11-03T07:52:03.986Z,82.01
2018-11-03T07:53:04.153Z,82.12
2018-11-03T07:54:03.878Z,82.16
2018-11-03T07:55:03.974Z,82.46
2018-11-03T07:56:03.889Z,82.31
2018-11-03T07:57:03.889Z,82.21
2018-11-03T07:58:03.821Z,82.39
2018-11-03T07:59:04.090Z,81.95
2018-11-03T08:00:03.909Z,81.76
2018-11-03T08:01:04.104Z,82.01
2018-11-03T08:02:04.001Z,81.82
2018-11-03T08:03:03.900Z,81.43
2018-11-03T08:04:04.131Z,81.47
2018-11-03T08:05:04.168Z,81.6
2018-11-03T08:06:03.941Z,81.5
2018-11-03T08:07:04.143Z,81.78
2018-11-03T08:08:03.863Z,81.62
2018-11-03T08:09:04.038Z,81.48
2018-11-03T08:10:03.977Z,81.47
2018-11-03T08:11:04.471Z,81.56
2018-11-03T08:12:04.078Z,81.8
2018-11-03T08:13:04.108Z,81.87
2018-11-03T08:14:04.026Z,81.66
2018-11-03T08:15:03.966Z,81.86
2018-11-03T08:16:04.130Z,81.77
2018-11-03T08:17:04.209Z,81.8
2018-11-03T08:18:03.949Z,81.71
2018-11-03T08:19:04.122Z,81.44
2018-11-03T08:20:04.008Z,81.6
2018-11-03T08:21:03.780Z,81.52
2018-11-03T08:22:03.972Z,81.45
2018-11-03T08:23:03.989Z,81.38
2018-11-03T08:24:04.489Z,81.44
2018-11-03T08:25:03.798Z,81.41
2018-11-03T08:26:03.960Z,81.29
2018-11-03T08:27:03.956Z,81.13
2018-11-03T08:28:03.864Z,81.21
2018-11-03T08:29:03.962Z,81.37
2018-11-03T08:30:04.221Z,80.95
2018-11-03T08:31:03.919Z,80.94
2018-11-03T08:32:03.854Z,80.69
2018-11-03T08:33:04.360Z,80.61
2018-11-03T08:34:04.122Z,80.96
2018-11-03T08:35:04.027Z,80.41
2018-11-03T08:36:04.030Z,80.54
2018-11-03T08:37:03.959Z,80.31
2018-11-03T08:38:04.249Z,80.21
2018-11-03T08:39:03.933Z,80.29
2018-11-03T08:40:04.117Z,80.27
2018-11-03T08:41:03.864Z,80.26
2018-11-03T08:42:03.897Z,80.43
2018-11-03T08:43:03.986Z,80.21
2018-11-03T08:44:04.090Z,80.1
2018-11-03T08:45:03.887Z,80.24
2018-11-03T08:46:03.906Z,79.97
2018-11-03T08:47:03.830Z,80.02
2018-11-03T08:49:04.436Z,79.6
2018-11-03T08:50:03.754Z,79.97
2018-11-03T08:51:03.956Z,79.88
2018-11-03T08:52:03.738Z,79.45
2018-11-03T08:53:04.049Z,79.68
2018-11-03T08:54:03.791Z,79.97
2018-11-03T08:55:04.128Z,79.9
2018-11-03T08:56:03.757Z,79.76
2018-11-03T08:57:03.753Z,79.31
2018-11-03T08:58:03.885Z,79.44
2018-11-03T08:59:03.804Z,79.82
2018-11-03T09:00:04.017Z,79.74
2018-11-03T09:01:03.816Z,79.24
2018-11-03T09:02:03.876Z,79.58
2018-11-03T09:03:04.018Z,79.53
2018-11-03T09:04:03.849Z,79.81
2018-11-03T09:05:04.032Z,79.36
2018-11-03T09:06:03.751Z,78.99
2018-11-03T09:07:04.545Z,79.22
2018-11-03T09:08:03.742Z,79.35
2018-11-03T09:09:26.702Z,79.15
2018-11-03T09:10:03.750Z,79.11
2018-11-03T09:11:04.069Z,79.35
2018-11-03T09:12:03.736Z,78.99
2018-11-03T09:13:03.932Z,78.97
2018-11-03T09:14:03.714Z,79.13
2018-11-03T09:15:05.067Z,78.67
2018-11-03T09:16:03.753Z,78.63
2018-11-03T09:17:04.120Z,78.43
2018-11-03T09:18:04.023Z,78.68
2018-11-03T09:19:03.737Z,78.36
2018-11-03T09:20:03.731Z,77.71
2018-11-03T09:21:03.725Z,77.62
2018-11-03T09:22:03.732Z,77.49
2018-11-03T09:23:03.711Z,77.2
2018-11-03T09:24:03.744Z,77.17
2018-11-03T09:25:03.744Z,77.36
2018-11-03T09:26:03.717Z,77.7
2018-11-03T09:27:03.762Z,77.44
2018-11-03T09:28:03.747Z,77.31
2018-11-03T09:29:03.885Z,77.72
2018-11-03T09:30:03.717Z,77.47
2018-11-03T09:31:03.765Z,77.91
2018-11-03T09:32:03.896Z,77.5
2018-11-03T09:33:03.753Z,76.85
2018-11-03T09:34:03.709Z,77.18
2018-11-03T09:35:03.703Z,77.01
2018-11-03T09:36:03.852Z,77.17
2018-11-03T09:37:03.835Z,76.96
2018-11-03T09:38:03.809Z,76.49
2018-11-03T09:39:03.999Z,77.21
2018-11-03T09:40:03.926Z,77.06
2018-11-03T09:41:03.744Z,76.97
2018-11-03T09:42:03.743Z,76.45
2018-11-03T09:43:04.081Z,76.78
2018-11-03T09:44:03.713Z,75.97
2018-11-03T09:45:04.135Z,75.65
2018-11-03T09:46:04.090Z,75.78
2018-11-03T09:47:03.891Z,75.67
2018-11-03T09:48:04.017Z,75.74
2018-11-03T09:49:04.263Z,76.44
2018-11-03T09:50:03.727Z,76.35
2018-11-03T09:51:03.690Z,75.59
2018-11-03T09:52:03.676Z,75.53
2018-11-03T09:53:03.672Z,75.82
2018-11-03T09:54:03.828Z,75.43
2018-11-03T09:55:03.706Z,75.44
2018-11-03T09:56:03.766Z,75.07
2018-11-03T09:57:03.986Z,74.9
2018-11-03T09:58:03.882Z,75.05
2018-11-03T09:59:03.678Z,74.67
2018-11-03T10:00:04.481Z,74.92
2018-11-03T10:01:04.004Z,75.5
2018-11-03T10:02:03.738Z,74.97
2018-11-03T10:03:04.012Z,75
2018-11-03T10:04:04.233Z,75.71
2018-11-03T10:05:03.926Z,75.09
2018-11-03T10:06:03.659Z,75.46
2018-11-03T10:07:03.642Z,74.49
2018-11-03T10:08:03.637Z,74.98
2018-11-03T10:09:03.961Z,74.55
2018-11-03T10:10:03.678Z,74.51
2018-11-03T10:11:03.615Z,74.56
2018-11-03T10:12:03.816Z,74.59
2018-11-03T10:13:03.680Z,74.73
2018-11-03T10:14:03.677Z,74.9
2018-11-03T10:15:03.661Z,74.26
2018-11-03T10:16:03.728Z,74.04
2018-11-03T10:17:04.448Z,73.71
2018-11-03T10:18:03.611Z,73.62
2018-11-03T10:19:04.027Z,73.67
2018-11-03T10:20:03.925Z,73.64
2018-11-03T10:21:03.667Z,73.58
2018-11-03T10:22:04.011Z,73.73
2018-11-03T10:23:03.716Z,73.53
2018-11-03T10:24:03.749Z,73.88
2018-11-03T10:25:03.913Z,73.47
2018-11-03T10:26:03.648Z,73.6
2018-11-03T10:27:03.750Z,72.72
2018-11-03T10:28:03.762Z,73.09
2018-11-03T10:29:03.702Z,73.33
2018-11-03T10:30:03.687Z,73.2
2018-11-03T10:31:03.686Z,72.41
2018-11-03T10:32:03.632Z,72.51
2018-11-03T10:33:03.680Z,73.01
2018-11-03T10:34:03.992Z,73.21
2018-11-03T10:35:03.938Z,72.77
2018-11-03T10:36:03.708Z,72.38
2018-11-03T10:37:03.752Z,72.25
2018-11-03T10:38:03.700Z,72.32
2018-11-03T10:39:03.620Z,72.68
2018-11-03T10:40:03.591Z,72.2
2018-11-03T10:41:03.737Z,72.09
2018-11-03T10:42:04.054Z,71.92
2018-11-03T10:43:03.645Z,71.81
2018-11-03T10:44:03.592Z,71.47
2018-11-03T10:45:03.577Z,71.63
2018-11-03T10:46:03.610Z,72.06
2018-11-03T10:47:03.755Z,72.09
2018-11-03T10:48:03.565Z,71.9
2018-11-03T10:49:03.619Z,72.05
2018-11-03T10:50:03.579Z,71.69
2018-11-03T10:51:03.613Z,70.94
2018-11-03T10:52:03.609Z,71.12
2018-11-03T10:53:03.659Z,71.51
2018-11-03T10:54:03.594Z,71.16
2018-11-03T10:55:03.585Z,71.01
2018-11-03T10:56:03.566Z,70.92
2018-11-03T10:57:03.588Z,70.94
2018-11-03T10:58:03.574Z,70.73
2018-11-03T10:59:03.581Z,71.32
2018-11-03T11:00:03.615Z,71.23
2018-11-03T11:01:03.543Z,71.4
2018-11-03T11:02:03.838Z,71.06
2018-11-03T11:03:03.578Z,71.08
2018-11-03T11:04:03.658Z,70.93
2018-11-03T11:05:03.664Z,70.8
2018-11-03T11:06:03.851Z,71.03
2018-11-03T11:07:03.938Z,71.21
2018-11-03T11:08:03.744Z,71.5
2018-11-03T11:09:03.952Z,71.58
2018-11-03T11:10:03.557Z,72.05
2018-11-03T11:11:03.752Z,71.73
2018-11-03T11:12:04.208Z,70.83
2018-11-03T11:13:03.544Z,70.93
2018-11-03T11:14:03.996Z,71.28
2018-11-03T11:15:03.594Z,71.37
2018-11-03T11:16:03.769Z,71.12
2018-11-03T11:17:03.740Z,71.22
2018-11-03T11:18:03.577Z,70.72
2018-11-03T11:19:03.617Z,70.64
2018-11-03T11:20:03.611Z,71.05
2018-11-03T11:21:03.583Z,71.53
2018-11-03T11:22:03.616Z,70.56
2018-11-03T11:23:03.545Z,69.88
2018-11-03T11:24:03.712Z,69.85
2018-11-03T11:25:03.678Z,69.99
2018-11-03T11:26:03.531Z,70.03
2018-11-03T11:27:03.963Z,70.46
2018-11-03T11:28:03.646Z,70.2
2018-11-03T11:29:03.616Z,70.5
2018-11-03T11:30:03.641Z,69.87
2018-11-03T11:31:03.574Z,69.92
2018-11-03T11:32:03.544Z,69.88
2018-11-03T11:33:04.343Z,69.64
2018-11-03T11:34:03.962Z,69.6
2018-11-03T11:35:03.560Z,69.76
2018-11-03T11:36:03.575Z,70.04
2018-11-03T11:37:03.556Z,69.79
2018-11-03T11:38:03.620Z,69.87
2018-11-03T11:39:04.287Z,70.27
2018-11-03T11:40:03.568Z,70
2018-11-03T11:41:03.766Z,70.2
2018-11-03T11:42:03.771Z,70.09
2018-11-03T11:43:03.556Z,69.8
2018-11-03T11:44:03.618Z,70.01
2018-11-03T11:45:03.570Z,70.04
2018-11-03T11:46:03.562Z,69.96
2018-11-03T11:47:03.585Z,69.77
2018-11-03T11:48:03.617Z,70.06
2018-11-03T11:49:15.982Z,69.73
2018-11-03T11:50:03.532Z,69.71
2018-11-03T11:51:03.560Z,69.63
2018-11-03T11:52:03.846Z,69.42
2018-11-03T11:53:03.678Z,69.4
2018-11-03T11:54:03.964Z,69.32
2018-11-03T11:55:03.975Z,69.71
2018-11-03T11:56:03.961Z,69.57
2018-11-03T11:57:05.285Z,69.76
2018-11-03T11:58:06.489Z,69.57
2018-11-03T11:59:03.772Z,69.33
2018-11-03T12:00:03.560Z,69.21
2018-11-03T12:01:03.530Z,68.88
2018-11-03T12:02:03.587Z,69.04
2018-11-03T12:03:03.607Z,69.47
2018-11-03T12:04:03.594Z,69.26
2018-11-03T12:05:03.568Z,69.48
2018-11-03T12:06:03.713Z,68.95
2018-11-03T12:07:03.624Z,69.02
2018-11-03T12:08:03.594Z,68.56
2018-11-03T12:09:03.559Z,68.97
2018-11-03T12:10:04.202Z,68.67
2018-11-03T12:11:03.520Z,68.54
2018-11-03T12:12:03.604Z,68.93
2018-11-03T12:13:03.689Z,68.61
2018-11-03T12:14:03.665Z,68.32
2018-11-03T12:15:03.726Z,68.75
2018-11-03T12:16:03.561Z,68.91
2018-11-03T12:17:03.583Z,69.29
2018-11-03T12:18:03.484Z,69.33
2018-11-03T12:19:03.624Z,68.41
2018-11-03T12:20:03.482Z,68.09
2018-11-03T12:21:03.535Z,68.41
2018-11-03T12:22:03.440Z,68.63
2018-11-03T12:23:03.471Z,68.75
2018-11-03T12:24:03.461Z,68.44
2018-11-03T12:25:03.492Z,68.46
2018-11-03T12:26:03.531Z,68.23
2018-11-03T12:27:03.482Z,68.45
2018-11-03T12:28:03.485Z,68.83
2018-11-03T12:29:03.474Z,68.61
2018-11-03T12:30:03.411Z,68.35
2018-11-03T12:31:03.490Z,68.82
2018-11-03T12:32:03.444Z,68.2
2018-11-03T12:33:03.547Z,68.01
2018-11-03T12:34:03.443Z,68.49
2018-11-03T12:35:03.452Z,68.37
2018-11-03T12:36:03.539Z,68.35
2018-11-03T12:37:03.878Z,68.06
2018-11-03T12:38:03.545Z,68.1
2018-11-03T12:39:03.442Z,68.51
2018-11-03T12:40:03.565Z,68.32
2018-11-03T12:41:03.507Z,68.14
2018-11-03T12:42:03.555Z,67.85
2018-11-03T12:43:03.447Z,67.93
2018-11-03T12:44:03.724Z,68.29
2018-11-03T12:45:03.510Z,67.93
2018-11-03T12:46:03.480Z,67.89
2018-11-03T12:47:03.474Z,67.65
2018-11-03T12:48:03.562Z,68.01
2018-11-03T12:49:03.563Z,67.78
2018-11-03T12:50:03.468Z,67.68
2018-11-03T12:51:03.722Z,67.79
2018-11-03T12:52:03.453Z,68.06
2018-11-03T12:53:03.551Z,67.38
2018-11-03T12:54:03.756Z,67.48
2018-11-03T12:55:03.450Z,67.17
2018-11-03T12:56:03.617Z,67.55